createdAt,value
2019-05-14T00:00:13.196Z,870.00
2019-05-14T00:01:14.969Z,860.00
2019-05-14T00:02:15.420Z,870.00
2019-05-14T00:03:15.983Z,870.00
2019-05-14T00:04:16.385Z,870.00
2019-05-14T00:05:16.975Z,869.00
2019-05-14T00:06:16.467Z,871.00
2019-05-14T00:07:18.020Z,870.00
2019-05-14T00:08:18.656Z,870.00
2019-05-14T00:09:21.395Z,871.00
2019-05-14T00:10:18.865Z,870.00
2019-05-14T00:11:21.947Z,870.00
2019-05-14T00:12:22.119Z,871.00
2019-05-14T00:13:21.433Z,860.00
2019-05-14T00:14:23.278Z,861.00
2019-05-14T00:15:21.836Z,873.00
2019-05-14T00:16:24.355Z,873.00
2019-05-14T00:17:22.451Z,861.00
2019-05-14T00:18:24.089Z,861.00
2019-05-14T00:19:24.514Z,871.00
2019-05-14T00:20:24.959Z,872.00
2019-05-14T00:21:25.518Z,871.00
2019-05-14T00:22:26.056Z,871.00
2019-05-14T00:23:26.695Z,873.00
2019-05-14T00:24:27.255Z,873.00
2019-05-14T00:25:26.810Z,872.00
2019-05-14T00:26:27.872Z,872.00
2019-05-14T00:27:31.056Z,871.00
2019-05-14T00:28:28.639Z,872.00
2019-05-14T00:29:29.179Z,873.00
2019-05-14T00:30:31.664Z,873.00
2019-05-14T00:31:31.761Z,873.00
2019-05-14T00:32:31.768Z,874.00
2019-05-14T00:33:31.717Z,874.00
2019-05-14T00:34:32.032Z,873.00
2019-05-14T00:35:35.773Z,873.00
2019-05-14T00:36:33.067Z,874.00
2019-05-14T00:37:34.474Z,873.00
2019-05-14T00:38:34.943Z,873.00
2019-05-14T00:39:34.433Z,873.00
2019-05-14T00:40:35.901Z,874.00
2019-05-14T00:41:36.682Z,873.00
2019-05-14T00:42:37.239Z,873.00
2019-05-14T00:43:37.765Z,872.00
2019-05-14T00:44:51.634Z,873.00
2019-05-14T00:45:37.893Z,873.00
2019-05-14T00:46:41.118Z,873.00
2019-05-14T00:47:41.568Z,873.00
2019-05-14T00:48:42.029Z,864.00
2019-05-14T00:49:42.490Z,857.00
2019-05-14T00:50:42.098Z,874.00
2019-05-14T00:51:41.535Z,874.00
2019-05-14T00:52:46.123Z,873.00
2019-05-14T00:53:42.481Z,874.00
2019-05-14T00:54:43.933Z,873.00
2019-05-14T00:55:44.427Z,873.00
2019-05-14T00:56:44.972Z,874.00
2019-05-14T00:57:45.550Z,873.00
2019-05-14T00:58:46.196Z,873.00
2019-05-14T00:58:56.737Z,873.00
2019-05-14T00:59:58.151Z,873.00
2019-05-14T01:00:58.639Z,873.00
2019-05-14T01:01:59.179Z,874.00
2019-05-14T01:03:01.790Z,874.00
2019-05-14T01:04:01.116Z,874.00
2019-05-14T01:05:01.783Z,873.00
2019-05-14T01:06:02.220Z,873.00
2019-05-14T01:07:01.545Z,873.00
2019-05-14T01:08:01.889Z,873.00
2019-05-14T01:09:01.589Z,873.00
2019-05-14T01:10:01.639Z,874.00
2019-05-14T01:11:03.090Z,874.00
2019-05-14T01:12:03.859Z,874.00
2019-05-14T01:13:04.251Z,874.00
2019-05-14T01:14:04.763Z,874.00
2019-05-14T01:15:09.737Z,876.00
2019-05-14T01:16:04.848Z,876.00
2019-05-14T01:17:06.301Z,876.00
2019-05-14T01:18:06.927Z,876.00
2019-05-14T01:19:07.413Z,876.00
2019-05-14T01:20:08.025Z,878.00
2019-05-14T01:21:08.491Z,878.00
2019-05-14T01:22:08.945Z,876.00
2019-05-14T01:23:11.359Z,876.00
2019-05-14T01:24:08.646Z,876.00
2019-05-14T01:25:11.999Z,876.00
2019-05-14T01:26:11.516Z,874.00
2019-05-14T01:27:12.082Z,874.00
2019-05-14T01:28:11.274Z,878.00
2019-05-14T01:29:12.028Z,878.00
2019-05-14T01:30:12.523Z,876.00
2019-05-14T01:31:14.713Z,876.00
2019-05-14T01:32:12.354Z,874.00
2019-05-14T01:33:13.823Z,874.00
2019-05-14T01:34:14.288Z,876.00
2019-05-14T01:35:15.001Z,874.00
2019-05-14T01:36:15.477Z,874.00
2019-05-14T01:37:15.883Z,876.00
2019-05-14T01:38:16.430Z,876.00
2019-05-14T01:39:16.949Z,877.00
2019-05-14T01:40:17.366Z,876.00
2019-05-14T01:41:18.048Z,876.00
2019-05-14T01:42:18.418Z,876.00
2019-05-14T01:43:18.905Z,876.00
2019-05-14T01:44:21.407Z,876.00
2019-05-14T01:45:25.109Z,874.00
2019-05-14T01:46:21.030Z,874.00
2019-05-14T01:47:21.417Z,874.00
2019-05-14T01:48:21.949Z,874.00
2019-05-14T01:49:22.183Z,874.00
2019-05-14T01:50:21.716Z,873.00
2019-05-14T01:51:22.386Z,876.00
2019-05-14T01:52:22.834Z,876.00
2019-05-14T01:53:24.249Z,876.00
2019-05-14T01:54:24.797Z,876.00
2019-05-14T01:55:25.349Z,876.00
2019-05-14T01:56:24.698Z,877.00
2019-05-14T01:57:26.175Z,878.00
2019-05-14T01:58:31.180Z,877.00
2019-05-14T01:59:26.117Z,876.00
2019-05-14T02:00:26.528Z,876.00
2019-05-14T02:01:28.049Z,866.00
2019-05-14T02:02:28.708Z,867.00
2019-05-14T02:02:37.246Z,868.00
2019-05-14T02:03:40.959Z,876.00
2019-05-14T02:04:38.450Z,878.00
2019-05-14T02:05:41.574Z,878.00
2019-05-14T02:06:41.313Z,878.00
2019-05-14T02:07:42.059Z,877.00
2019-05-14T02:08:41.405Z,876.00
2019-05-14T02:09:41.955Z,876.00
2019-05-14T02:10:42.061Z,876.00
2019-05-14T02:11:42.148Z,876.00
2019-05-14T02:12:43.659Z,876.00
2019-05-14T02:13:44.335Z,876.00
2019-05-14T02:14:44.706Z,879.00
2019-05-14T02:15:45.121Z,878.00
2019-05-14T02:16:45.676Z,878.00
2019-05-14T02:17:46.230Z,877.00
2019-05-14T02:18:46.656Z,876.00
2019-05-14T02:19:47.087Z,878.00
2019-05-14T02:20:47.572Z,877.00
2019-05-14T02:21:47.772Z,876.00
2019-05-14T02:22:48.180Z,877.00
2019-05-14T02:23:48.672Z,878.00
2019-05-14T02:24:49.144Z,879.00
2019-05-14T02:25:51.686Z,878.00
2019-05-14T02:26:51.372Z,879.00
2019-05-14T02:27:51.788Z,879.00
2019-05-14T02:28:51.418Z,879.00
2019-05-14T02:29:51.925Z,879.00
2019-05-14T02:30:57.451Z,878.00
2019-05-14T02:31:51.653Z,879.00
2019-05-14T02:32:53.276Z,879.00
2019-05-14T02:33:53.686Z,880.00
2019-05-14T02:34:54.252Z,880.00
2019-05-14T02:35:54.745Z,879.00
2019-05-14T02:36:55.129Z,870.00
2019-05-14T02:37:55.636Z,879.00
2019-05-14T02:38:56.026Z,871.00
2019-05-14T02:39:59.481Z,880.00
2019-05-14T02:40:55.951Z,883.00
2019-05-14T02:41:58.950Z,881.00
2019-05-14T02:42:59.347Z,880.00
2019-05-14T02:43:59.378Z,880.00
2019-05-14T02:44:59.310Z,883.00
2019-05-14T02:46:10.828Z,884.00
2019-05-14T02:46:59.167Z,883.00
2019-05-14T02:48:00.450Z,881.00
2019-05-14T02:48:59.798Z,881.00
2019-05-14T02:49:59.971Z,880.00
2019-05-14T02:51:01.615Z,879.00
2019-05-14T02:52:02.538Z,880.00
2019-05-14T02:53:03.063Z,880.00
2019-05-14T02:54:03.727Z,880.00
2019-05-14T02:55:04.106Z,880.00
2019-05-14T02:56:04.800Z,880.00
2019-05-14T02:57:05.265Z,880.00
2019-05-14T02:58:04.616Z,879.00
2019-05-14T02:59:09.504Z,879.00
2019-05-14T03:00:05.751Z,879.00
2019-05-14T03:01:09.444Z,879.00
2019-05-14T03:02:09.547Z,881.00
2019-05-14T03:03:09.881Z,884.00
2019-05-14T03:04:09.111Z,881.00
2019-05-14T03:05:09.797Z,881.00
2019-05-14T03:06:09.598Z,880.00
2019-05-14T03:07:10.633Z,880.00
2019-05-14T03:08:10.051Z,881.00
2019-05-14T03:09:11.480Z,882.00
2019-05-14T03:09:20.560Z,881.00
2019-05-14T03:10:20.393Z,881.00
2019-05-14T03:11:21.826Z,880.00
2019-05-14T03:12:22.311Z,879.00
2019-05-14T03:13:22.949Z,880.00
2019-05-14T03:14:23.430Z,880.00
2019-05-14T03:15:23.974Z,880.00
2019-05-14T03:16:30.854Z,883.00
2019-05-14T03:17:23.912Z,883.00
2019-05-14T03:18:25.367Z,885.00
2019-05-14T03:19:25.822Z,885.00
2019-05-14T03:20:28.776Z,883.00
2019-05-14T03:21:25.705Z,881.00
2019-05-14T03:22:41.650Z,880.00
2019-05-14T03:23:30.220Z,880.00
2019-05-14T03:24:28.809Z,880.00
2019-05-14T03:25:30.165Z,880.00
2019-05-14T03:26:29.357Z,880.00
2019-05-14T03:27:30.418Z,879.00
2019-05-14T03:28:30.527Z,880.00
2019-05-14T03:29:30.989Z,881.00
2019-05-14T03:30:32.394Z,881.00
2019-05-14T03:31:33.082Z,881.00
2019-05-14T03:32:33.127Z,882.00
2019-05-14T03:33:33.946Z,881.00
2019-05-14T03:34:33.657Z,881.00
2019-05-14T03:35:42.152Z,880.00
2019-05-14T03:36:35.338Z,871.00
2019-05-14T03:37:34.338Z,881.00
2019-05-14T03:38:35.773Z,880.00
2019-05-14T03:39:39.396Z,880.00
2019-05-14T03:40:35.835Z,881.00
2019-05-14T03:41:39.690Z,880.00
2019-05-14T03:42:39.657Z,880.00
2019-05-14T03:43:39.158Z,880.00
2019-05-14T03:44:39.999Z,880.00
2019-05-14T03:45:39.104Z,871.00
2019-05-14T03:46:49.530Z,871.00
2019-05-14T03:47:39.696Z,880.00
2019-05-14T03:48:40.228Z,879.00
2019-05-14T03:49:40.357Z,880.00
2019-05-14T03:50:40.813Z,880.00
2019-05-14T03:51:42.411Z,880.00
2019-05-14T03:52:42.854Z,880.00
2019-05-14T03:53:56.923Z,881.00
2019-05-14T03:54:42.668Z,880.00
2019-05-14T03:55:44.206Z,883.00
2019-05-14T03:56:44.631Z,883.00
2019-05-14T03:57:45.300Z,882.00
2019-05-14T03:58:49.238Z,883.00
2019-05-14T03:59:45.272Z,882.00
2019-05-14T04:00:45.478Z,883.00
2019-05-14T04:01:50.713Z,881.00
2019-05-14T04:02:49.082Z,881.00
2019-05-14T04:03:50.315Z,884.00
2019-05-14T04:04:50.259Z,884.00
2019-05-14T04:05:49.502Z,883.00
2019-05-14T04:06:49.616Z,883.00
2019-05-14T04:07:50.257Z,885.00
2019-05-14T04:08:50.001Z,886.00
2019-05-14T04:09:50.070Z,884.00
2019-05-14T04:10:54.201Z,884.00
2019-05-14T04:11:51.513Z,883.00
2019-05-14T04:12:52.883Z,881.00
2019-05-14T04:13:53.407Z,883.00
2019-05-14T04:14:52.833Z,883.00
2019-05-14T04:15:54.392Z,883.00
2019-05-14T04:17:05.207Z,883.00
2019-05-14T04:17:54.848Z,881.00
2019-05-14T04:18:59.240Z,881.00
2019-05-14T04:19:55.977Z,885.00
2019-05-14T04:20:59.426Z,884.00
2019-05-14T04:21:59.905Z,885.00
2019-05-14T04:23:00.064Z,886.00
2019-05-14T04:23:59.501Z,886.00
2019-05-14T04:24:59.686Z,885.00
2019-05-14T04:26:00.523Z,884.00
2019-05-14T04:27:07.193Z,884.00
2019-05-14T04:27:59.917Z,883.00
2019-05-14T04:29:01.285Z,882.00
2019-05-14T04:30:01.879Z,883.00
2019-05-14T04:31:01.206Z,883.00
2019-05-14T04:31:10.232Z,884.00
2019-05-14T04:32:11.794Z,883.00
2019-05-14T04:33:11.237Z,885.00
2019-05-14T04:34:12.855Z,888.00
2019-05-14T04:35:13.429Z,885.00
2019-05-14T04:36:14.007Z,884.00
2019-05-14T04:37:14.407Z,888.00
2019-05-14T04:38:15.045Z,886.00
2019-05-14T04:39:15.752Z,886.00
2019-05-14T04:40:18.902Z,885.00
2019-05-14T04:41:19.222Z,884.00
2019-05-14T04:42:16.201Z,883.00
2019-05-14T04:43:19.236Z,884.00
2019-05-14T04:44:19.216Z,884.00
2019-05-14T04:45:19.719Z,883.00
2019-05-14T04:46:19.949Z,879.00
2019-05-14T04:47:31.416Z,878.00
2019-05-14T04:48:31.066Z,876.00
2019-05-14T04:49:20.125Z,877.00
2019-05-14T04:50:20.393Z,868.00
2019-05-14T04:51:20.631Z,878.00
2019-05-14T04:52:22.257Z,874.00
2019-05-14T04:53:22.678Z,874.00
2019-05-14T04:54:23.139Z,869.00
2019-05-14T04:55:23.822Z,867.00
2019-05-14T04:56:24.386Z,865.00
2019-05-14T04:57:25.745Z,860.00
2019-05-14T04:58:24.405Z,858.00
2019-05-14T04:59:29.686Z,857.00
2019-05-14T05:00:25.791Z,855.00
2019-05-14T05:01:29.468Z,853.00
2019-05-14T05:02:29.839Z,849.00
2019-05-14T05:03:30.333Z,847.00
2019-05-14T05:04:29.904Z,845.00
2019-05-14T05:05:29.984Z,842.00
2019-05-14T05:06:29.294Z,852.00
2019-05-14T05:07:29.965Z,848.00
2019-05-14T05:08:30.744Z,847.00
2019-05-14T05:09:30.320Z,844.00
2019-05-14T05:10:31.840Z,840.00
2019-05-14T05:11:32.379Z,835.00
2019-05-14T05:12:32.981Z,833.00
2019-05-14T05:13:33.357Z,831.00
2019-05-14T05:14:33.773Z,831.00
2019-05-14T05:15:34.576Z,831.00
2019-05-14T05:16:35.088Z,829.00
2019-05-14T05:17:44.166Z,825.00
2019-05-14T05:18:35.072Z,816.00
2019-05-14T05:19:39.245Z,825.00
2019-05-14T05:20:39.164Z,824.00
2019-05-14T05:21:38.711Z,822.00
2019-05-14T05:22:39.497Z,821.00
2019-05-14T05:23:38.702Z,823.00
2019-05-14T05:24:38.289Z,823.00
2019-05-14T05:25:38.678Z,822.00
2019-05-14T05:26:40.392Z,821.00
2019-05-14T05:27:41.354Z,811.00
2019-05-14T05:28:41.907Z,816.00
2019-05-14T05:29:42.453Z,806.00
2019-05-14T05:30:42.943Z,805.00
2019-05-14T05:31:43.486Z,812.00
2019-05-14T05:32:44.033Z,810.00
2019-05-14T05:33:44.755Z,809.00
2019-05-14T05:34:45.252Z,809.00
2019-05-14T05:35:45.894Z,807.00
2019-05-14T05:35:54.470Z,806.00
2019-05-14T05:36:55.850Z,805.00
2019-05-14T05:37:58.286Z,794.00
2019-05-14T05:38:56.031Z,801.00
2019-05-14T05:39:58.361Z,790.00
2019-05-14T05:40:59.946Z,798.00
2019-05-14T05:41:58.490Z,797.00
2019-05-14T05:42:58.367Z,795.00
2019-05-14T05:43:59.105Z,794.00
2019-05-14T05:44:59.432Z,794.00
2019-05-14T05:46:00.869Z,792.00
2019-05-14T05:47:01.302Z,788.00
2019-05-14T05:48:02.029Z,788.00
2019-05-14T05:49:01.437Z,794.00
2019-05-14T05:50:02.614Z,793.00
2019-05-14T05:51:03.172Z,790.00
2019-05-14T05:52:03.602Z,788.00
2019-05-14T05:53:03.988Z,787.00
2019-05-14T05:54:04.367Z,785.00
2019-05-14T05:55:04.930Z,784.00
2019-05-14T05:56:05.452Z,783.00
2019-05-14T05:57:05.957Z,782.00
2019-05-14T05:58:08.525Z,783.00
2019-05-14T05:59:06.113Z,783.00
2019-05-14T06:00:09.460Z,783.00
2019-05-14T06:01:09.683Z,782.00
2019-05-14T06:02:09.427Z,783.00
2019-05-14T06:03:10.768Z,783.00
2019-05-14T06:04:08.837Z,784.00
2019-05-14T06:05:09.090Z,784.00
2019-05-14T06:06:13.589Z,783.00
2019-05-14T06:07:10.092Z,783.00
2019-05-14T06:08:11.587Z,782.00
2019-05-14T06:09:12.169Z,782.00
2019-05-14T06:10:12.763Z,780.00
2019-05-14T06:11:13.450Z,778.00
2019-05-14T06:12:13.930Z,776.00
2019-05-14T06:13:14.588Z,775.00
2019-05-14T06:14:14.050Z,774.00
2019-05-14T06:15:15.556Z,774.00
2019-05-14T06:16:18.417Z,773.00
2019-05-14T06:17:15.881Z,774.00
2019-05-14T06:18:21.739Z,773.00
2019-05-14T06:19:18.546Z,773.00
2019-05-14T06:20:18.978Z,773.00
2019-05-14T06:21:18.983Z,780.00
2019-05-14T06:22:18.826Z,783.00
2019-05-14T06:23:19.068Z,784.00
2019-05-14T06:24:19.560Z,782.00
2019-05-14T06:25:21.113Z,780.00
2019-05-14T06:26:20.348Z,777.00
2019-05-14T06:27:21.866Z,776.00
2019-05-14T06:28:22.435Z,776.00
2019-05-14T06:29:22.870Z,775.00
2019-05-14T06:30:23.450Z,782.00
2019-05-14T06:31:23.988Z,778.00
2019-05-14T06:32:24.396Z,778.00
2019-05-14T06:33:24.924Z,784.00
2019-05-14T06:34:25.388Z,788.00
2019-05-14T06:35:28.479Z,787.00
2019-05-14T06:36:26.100Z,788.00
2019-05-14T06:37:30.170Z,786.00
2019-05-14T06:38:29.516Z,785.00
2019-05-14T06:39:28.411Z,784.00
2019-05-14T06:40:28.785Z,785.00
2019-05-14T06:41:29.087Z,786.00
2019-05-14T06:41:42.460Z,786.00
2019-05-14T06:42:39.503Z,787.00
2019-05-14T06:43:39.367Z,787.00
2019-05-14T06:44:39.312Z,786.00
2019-05-14T06:45:40.980Z,786.00
2019-05-14T06:46:41.481Z,788.00
2019-05-14T06:47:42.115Z,787.00
2019-05-14T06:48:42.697Z,792.00
2019-05-14T06:49:42.460Z,798.00
2019-05-14T06:50:43.903Z,797.00
2019-05-14T06:51:44.560Z,796.00
2019-05-14T06:52:45.125Z,787.00
2019-05-14T06:53:45.597Z,788.00
2019-05-14T06:54:46.061Z,795.00
2019-05-14T06:55:48.402Z,796.00
2019-05-14T06:56:45.950Z,799.00
2019-05-14T06:57:48.126Z,805.00
2019-05-14T06:58:49.073Z,805.00
2019-05-14T06:59:48.375Z,806.00
2019-05-14T07:00:49.510Z,810.00
2019-05-14T07:01:49.105Z,808.00
2019-05-14T07:02:49.350Z,806.00
2019-05-14T07:03:49.773Z,806.00
2019-05-14T07:04:51.521Z,806.00
2019-05-14T07:05:52.047Z,807.00
2019-05-14T07:06:52.492Z,806.00
2019-05-14T07:07:52.962Z,805.00
2019-05-14T07:08:53.744Z,807.00
2019-05-14T07:09:54.281Z,807.00
2019-05-14T07:10:54.665Z,807.00
2019-05-14T07:11:55.394Z,809.00
2019-05-14T07:12:55.783Z,807.00
2019-05-14T07:13:58.137Z,802.00
2019-05-14T07:14:55.581Z,801.00
2019-05-14T07:15:58.353Z,807.00
2019-05-14T07:16:58.912Z,806.00
2019-05-14T07:17:58.390Z,807.00
2019-05-14T07:18:59.147Z,807.00
2019-05-14T07:19:58.657Z,808.00
2019-05-14T07:21:00.334Z,809.00
2019-05-14T07:22:00.935Z,811.00
2019-05-14T07:23:01.589Z,814.00
2019-05-14T07:24:02.324Z,818.00
2019-05-14T07:25:02.991Z,825.00
2019-05-14T07:26:02.546Z,831.00
2019-05-14T07:27:04.055Z,831.00
2019-05-14T07:28:04.463Z,826.00
2019-05-14T07:29:04.898Z,831.00
2019-05-14T07:30:05.621Z,826.00
2019-05-14T07:31:06.112Z,832.00
2019-05-14T07:32:09.080Z,832.00
2019-05-14T07:33:06.186Z,831.00
2019-05-14T07:34:08.928Z,829.00
2019-05-14T07:35:09.108Z,826.00
2019-05-14T07:36:08.908Z,829.00
2019-05-14T07:37:09.448Z,829.00
2019-05-14T07:38:09.300Z,828.00
2019-05-14T07:39:09.930Z,826.00
2019-05-14T07:40:11.804Z,826.00
2019-05-14T07:41:11.076Z,825.00
2019-05-14T07:42:11.737Z,826.00
2019-05-14T07:43:12.366Z,826.00
2019-05-14T07:44:12.987Z,826.00
2019-05-14T07:45:14.023Z,821.00
2019-05-14T07:46:14.174Z,829.00
2019-05-14T07:47:14.235Z,831.00
2019-05-14T07:48:14.715Z,832.00
2019-05-14T07:49:15.637Z,835.00
2019-05-14T07:49:24.788Z,834.00
2019-05-14T07:50:28.826Z,833.00
2019-05-14T07:51:28.239Z,833.00
2019-05-14T07:52:28.423Z,833.00
2019-05-14T07:53:36.079Z,833.00
2019-05-14T07:54:28.328Z,832.00
2019-05-14T07:55:28.845Z,826.00
2019-05-14T07:56:29.437Z,825.00
2019-05-14T07:57:29.365Z,831.00
2019-05-14T07:58:29.365Z,831.00
2019-05-14T07:59:29.179Z,825.00
2019-05-14T08:00:30.725Z,833.00
2019-05-14T08:01:31.101Z,833.00
2019-05-14T08:02:31.251Z,825.00
2019-05-14T08:03:32.090Z,832.00
2019-05-14T08:04:32.640Z,832.00
2019-05-14T08:05:33.251Z,825.00
2019-05-14T08:06:33.730Z,832.00
2019-05-14T08:07:34.270Z,825.00
2019-05-14T08:08:34.706Z,825.00
2019-05-14T08:09:34.737Z,825.00
2019-05-14T08:10:35.279Z,826.00
2019-05-14T08:11:35.669Z,826.00
2019-05-14T08:12:36.019Z,829.00
2019-05-14T08:13:38.784Z,834.00
2019-05-14T08:14:45.331Z,834.00
2019-05-14T08:15:38.648Z,834.00
2019-05-14T08:16:38.162Z,835.00
2019-05-14T08:17:38.791Z,835.00
2019-05-14T08:18:39.527Z,835.00
2019-05-14T08:19:38.765Z,835.00
2019-05-14T08:20:38.724Z,834.00
2019-05-14T08:21:40.391Z,835.00
2019-05-14T08:22:40.744Z,834.00
2019-05-14T08:23:41.320Z,834.00
2019-05-14T08:24:41.820Z,833.00
2019-05-14T08:25:42.504Z,833.00
2019-05-14T08:26:44.239Z,833.00
2019-05-14T08:27:41.824Z,829.00
2019-05-14T08:28:42.834Z,833.00
2019-05-14T08:29:43.457Z,833.00
2019-05-14T08:30:42.781Z,835.00
2019-05-14T08:31:44.730Z,835.00
2019-05-14T08:32:45.287Z,835.00
2019-05-14T08:33:48.532Z,834.00
2019-05-14T08:34:47.835Z,836.00
2019-05-14T08:35:46.002Z,836.00
2019-05-14T08:36:48.373Z,838.00
2019-05-14T08:37:49.232Z,837.00
2019-05-14T08:38:50.073Z,840.00
2019-05-14T08:39:48.828Z,838.00
2019-05-14T08:40:49.108Z,837.00
2019-05-14T08:41:58.603Z,836.00
2019-05-14T08:42:50.320Z,836.00
2019-05-14T08:43:50.349Z,837.00
2019-05-14T08:44:51.581Z,840.00
2019-05-14T08:45:51.653Z,843.00
2019-05-14T08:46:52.295Z,846.00
2019-05-14T08:47:53.145Z,843.00
2019-05-14T08:48:53.726Z,842.00
2019-05-14T08:49:54.250Z,841.00
2019-05-14T08:50:54.910Z,842.00
2019-05-14T08:51:54.971Z,841.00
2019-05-14T08:52:58.119Z,840.00
2019-05-14T08:53:58.956Z,840.00
2019-05-14T08:55:07.251Z,841.00
2019-05-14T08:55:58.885Z,841.00
2019-05-14T08:56:58.513Z,842.00
2019-05-14T08:57:59.330Z,841.00
2019-05-14T08:58:59.427Z,840.00
2019-05-14T08:59:59.912Z,840.00
2019-05-14T09:01:00.282Z,833.00
2019-05-14T09:02:06.278Z,838.00
2019-05-14T09:03:03.167Z,840.00
2019-05-14T09:04:01.538Z,841.00
2019-05-14T09:05:04.918Z,842.00
2019-05-14T09:05:13.093Z,842.00
2019-05-14T09:06:14.397Z,841.00
2019-05-14T09:07:14.837Z,843.00
2019-05-14T09:08:14.294Z,845.00
2019-05-14T09:09:18.122Z,843.00
2019-05-14T09:10:15.481Z,842.00
2019-05-14T09:11:22.859Z,841.00
2019-05-14T09:12:18.799Z,841.00
2019-05-14T09:13:18.501Z,833.00
2019-05-14T09:14:18.801Z,833.00
2019-05-14T09:15:18.825Z,841.00
2019-05-14T09:16:38.078Z,841.00
2019-05-14T09:17:19.830Z,844.00
2019-05-14T09:18:21.394Z,846.00
2019-05-14T09:19:22.009Z,847.00
2019-05-14T09:20:22.476Z,847.00
2019-05-14T09:21:23.171Z,846.00
2019-05-14T09:22:23.747Z,847.00
2019-05-14T09:23:24.611Z,846.00
2019-05-14T09:24:25.525Z,847.00
2019-05-14T09:25:25.172Z,847.00
2019-05-14T09:26:28.342Z,846.00
2019-05-14T09:27:25.605Z,848.00
2019-05-14T09:28:28.562Z,849.00
2019-05-14T09:29:29.853Z,849.00
2019-05-14T09:30:29.001Z,848.00
2019-05-14T09:31:29.565Z,847.00
2019-05-14T09:32:29.250Z,848.00
2019-05-14T09:33:29.754Z,848.00
2019-05-14T09:34:30.046Z,849.00
2019-05-14T09:35:31.757Z,847.00
2019-05-14T09:36:32.211Z,847.00
2019-05-14T09:37:32.848Z,848.00
2019-05-14T09:38:33.326Z,849.00
2019-05-14T09:39:34.229Z,848.00
2019-05-14T09:40:34.355Z,848.00
2019-05-14T09:41:33.774Z,846.00
2019-05-14T09:42:35.601Z,852.00
2019-05-14T09:43:39.266Z,852.00
2019-05-14T09:44:38.688Z,852.00
2019-05-14T09:45:38.792Z,852.00
2019-05-14T09:46:38.502Z,849.00
2019-05-14T09:47:38.967Z,849.00
2019-05-14T09:48:38.977Z,850.00
2019-05-14T09:49:40.497Z,849.00
2019-05-14T09:50:41.090Z,849.00
2019-05-14T09:51:41.844Z,852.00
2019-05-14T09:52:41.879Z,842.00
2019-05-14T09:53:42.453Z,844.00
2019-05-14T09:54:44.178Z,852.00
2019-05-14T09:55:42.368Z,852.00
2019-05-14T09:56:43.660Z,852.00
2019-05-14T09:57:44.250Z,852.00
2019-05-14T09:58:44.933Z,853.00
2019-05-14T09:59:47.830Z,855.00
2019-05-14T10:00:45.234Z,856.00
2019-05-14T10:01:45.298Z,857.00
2019-05-14T10:02:49.209Z,856.00
2019-05-14T10:03:49.354Z,856.00
2019-05-14T10:04:49.071Z,855.00
2019-05-14T10:05:50.207Z,856.00
2019-05-14T10:06:48.701Z,856.00
2019-05-14T10:07:49.654Z,857.00
2019-05-14T10:08:49.555Z,856.00
2019-05-14T10:09:50.299Z,855.00
2019-05-14T10:10:51.790Z,858.00
2019-05-14T10:11:52.374Z,856.00
2019-05-14T10:12:01.400Z,856.00
2019-05-14T10:13:02.780Z,854.00
2019-05-14T10:14:02.459Z,852.00
2019-05-14T10:15:03.921Z,849.00
2019-05-14T10:16:03.999Z,848.00
2019-05-14T10:17:04.539Z,847.00
2019-05-14T10:18:05.203Z,848.00
2019-05-14T10:19:04.794Z,849.00
2019-05-14T10:20:08.833Z,853.00
2019-05-14T10:21:08.336Z,853.00
2019-05-14T10:22:08.272Z,849.00
2019-05-14T10:23:09.272Z,848.00
2019-05-14T10:24:09.334Z,846.00
2019-05-14T10:25:09.152Z,846.00
2019-05-14T10:26:09.254Z,845.00
2019-05-14T10:27:09.287Z,843.00
2019-05-14T10:28:09.904Z,845.00
2019-05-14T10:29:11.472Z,845.00
2019-05-14T10:30:12.052Z,848.00
2019-05-14T10:31:13.395Z,847.00
2019-05-14T10:32:12.076Z,848.00
2019-05-14T10:33:14.933Z,848.00
2019-05-14T10:34:13.306Z,849.00
2019-05-14T10:35:15.239Z,849.00
2019-05-14T10:36:18.755Z,852.00
2019-05-14T10:37:15.546Z,849.00
2019-05-14T10:38:19.010Z,849.00
2019-05-14T10:39:19.201Z,852.00
2019-05-14T10:40:18.392Z,852.00
2019-05-14T10:41:18.526Z,852.00
2019-05-14T10:42:20.112Z,843.00
2019-05-14T10:43:19.609Z,842.00
2019-05-14T10:44:19.486Z,848.00
2019-05-14T10:45:20.710Z,848.00
2019-05-14T10:46:21.340Z,842.00
2019-05-14T10:47:22.010Z,848.00
2019-05-14T10:48:22.785Z,849.00
2019-05-14T10:49:23.950Z,852.00
2019-05-14T10:50:22.547Z,852.00
2019-05-14T10:51:24.173Z,852.00
2019-05-14T10:52:24.995Z,850.00
2019-05-14T10:53:28.685Z,849.00
2019-05-14T10:54:26.994Z,849.00
2019-05-14T10:55:27.814Z,847.00
2019-05-14T10:56:29.503Z,848.00
2019-05-14T10:57:29.000Z,848.00
2019-05-14T10:58:29.045Z,847.00
2019-05-14T10:59:29.416Z,846.00
2019-05-14T11:00:29.065Z,846.00
2019-05-14T11:01:30.716Z,847.00
2019-05-14T11:02:30.751Z,847.00
2019-05-14T11:03:31.696Z,849.00
2019-05-14T11:04:34.388Z,848.00
2019-05-14T11:05:32.291Z,848.00
2019-05-14T11:06:34.182Z,848.00
2019-05-14T11:07:34.731Z,853.00
2019-05-14T11:08:35.442Z,857.00
2019-05-14T11:09:38.080Z,856.00
2019-05-14T11:10:35.835Z,852.00
2019-05-14T11:11:38.214Z,852.00
2019-05-14T11:12:39.388Z,852.00
2019-05-14T11:13:39.407Z,853.00
2019-05-14T11:14:39.024Z,849.00
2019-05-14T11:15:39.522Z,847.00
2019-05-14T11:16:41.992Z,847.00
2019-05-14T11:17:40.665Z,846.00
2019-05-14T11:18:40.549Z,846.00
2019-05-14T11:19:41.149Z,847.00
2019-05-14T11:20:43.092Z,847.00
2019-05-14T11:21:43.612Z,846.00
2019-05-14T11:22:44.457Z,846.00
2019-05-14T11:23:44.915Z,847.00
2019-05-14T11:24:45.391Z,840.00
2019-05-14T11:24:53.923Z,841.00
2019-05-14T11:25:58.045Z,841.00
2019-05-14T11:26:55.379Z,847.00
2019-05-14T11:27:58.691Z,847.00
2019-05-14T11:28:58.595Z,840.00
2019-05-14T11:29:58.681Z,847.00
2019-05-14T11:30:57.977Z,848.00
2019-05-14T11:31:59.879Z,848.00
2019-05-14T11:33:00.668Z,848.00
2019-05-14T11:34:01.305Z,848.00
2019-05-14T11:35:02.207Z,849.00
2019-05-14T11:36:02.755Z,841.00
2019-05-14T11:37:03.472Z,840.00
2019-05-14T11:38:03.509Z,846.00
2019-05-14T11:39:04.336Z,846.00
2019-05-14T11:40:05.199Z,845.00
2019-05-14T11:41:05.748Z,845.00
2019-05-14T11:42:08.564Z,843.00
2019-05-14T11:43:05.239Z,843.00
2019-05-14T11:44:09.104Z,843.00
2019-05-14T11:45:08.804Z,846.00
2019-05-14T11:46:08.607Z,846.00
2019-05-14T11:47:09.008Z,837.00
2019-05-14T11:48:09.007Z,847.00
2019-05-14T11:49:10.873Z,846.00
2019-05-14T11:50:11.460Z,846.00
2019-05-14T11:51:11.993Z,846.00
2019-05-14T11:52:12.583Z,847.00
2019-05-14T11:53:12.057Z,846.00
2019-05-14T11:54:13.522Z,846.00
2019-05-14T11:55:14.036Z,848.00
2019-05-14T11:56:14.627Z,848.00
2019-05-14T11:57:15.101Z,847.00
2019-05-14T11:58:15.575Z,847.00
2019-05-14T11:59:16.159Z,847.00
2019-05-14T12:00:19.316Z,846.00
2019-05-14T12:01:18.966Z,846.00
2019-05-14T12:02:18.950Z,846.00
2019-05-14T12:03:19.620Z,845.00
2019-05-14T12:04:18.772Z,843.00
2019-05-14T12:05:19.048Z,844.00
2019-05-14T12:06:18.937Z,845.00
2019-05-14T12:07:20.568Z,845.00
2019-05-14T12:08:21.066Z,845.00
2019-05-14T12:09:21.588Z,835.00
2019-05-14T12:10:22.334Z,842.00
2019-05-14T12:11:23.331Z,833.00
2019-05-14T12:12:22.984Z,842.00
2019-05-14T12:13:24.426Z,847.00
2019-05-14T12:14:24.983Z,845.00
2019-05-14T12:15:25.952Z,849.00
2019-05-14T12:16:29.173Z,847.00
2019-05-14T12:17:29.325Z,846.00
2019-05-14T12:18:29.016Z,845.00
2019-05-14T12:19:28.405Z,835.00
2019-05-14T12:20:29.651Z,846.00
2019-05-14T12:21:29.133Z,844.00
2019-05-14T12:22:30.741Z,845.00
2019-05-14T12:23:31.283Z,845.00
2019-05-14T12:24:32.237Z,843.00
2019-05-14T12:25:33.033Z,842.00
2019-05-14T12:25:45.572Z,842.00